UAL134 PTSA-PTPN
Flight info
| Callsign | UAL134 |
|---|---|
| Flight time | 0h 56m |
| Altitude | 34000 |
| Route | UKS A222 AXTEN |
| Aircraft | B738/M-SDE2E3FGHIRWXY/LB1 |
Departure
| Time | 2026-04-22 22:06 |
|---|---|
| Airport | Kosrae International Airport (PTSA) |
Arrival
| Time | 2026-04-22 23:03 |
|---|---|
| Airport | Pohnpei International Airport (PTPN) |
| Time | Latitude | Longitude | Altitude | Speed | Heading |
|---|---|---|---|---|---|
| 2026-04-22 21:52 | 5.35339 | 162.95565 | 27 ft | 0 kts | 321° |
| 2026-04-22 22:03 | 5.35340 | 162.95565 | 27 ft | 1 kts | 324° |
| 2026-04-22 22:03 | 5.35360 | 162.95561 | 27 ft | 6 kts | 351° |
| 2026-04-22 22:04 | 5.35415 | 162.95545 | 27 ft | 10 kts | 331° |
| 2026-04-22 22:04 | 5.35449 | 162.95488 | 28 ft | 10 kts | 259° |
| 2026-04-22 22:04 | 5.35413 | 162.95427 | 28 ft | 11 kts | 236° |
| 2026-04-22 22:04 | 5.35359 | 162.95346 | 29 ft | 18 kts | 236° |
| 2026-04-22 22:05 | 5.35317 | 162.95247 | 30 ft | 13 kts | 257° |
| 2026-04-22 22:05 | 5.35274 | 162.95205 | 30 ft | 6 kts | 157° |
| 2026-04-22 22:05 | 5.35278 | 162.95240 | 30 ft | 6 kts | 49° |
| 2026-04-22 22:05 | 5.35397 | 162.95401 | 28 ft | 71 kts | 55° |
| 2026-04-22 22:06 | 5.35846 | 162.96047 | 30 ft | 152 kts | 54° |
| 2026-04-22 22:06 | 5.36523 | 162.97041 | 579 ft | 182 kts | 54° |
| 2026-04-22 22:06 | 5.37088 | 162.97666 | 1363 ft | 177 kts | 34° |
| 2026-04-22 22:06 | 5.38274 | 162.97972 | 2232 ft | 190 kts | 353° |
| 2026-04-22 22:07 | 5.39789 | 162.96867 | 2591 ft | 232 kts | 298° |
| 2026-04-22 22:07 | 5.40044 | 162.95780 | 2838 ft | 246 kts | 270° |
| 2026-04-22 22:07 | 5.39477 | 162.94161 | 3428 ft | 254 kts | 233° |
| 2026-04-22 22:07 | 5.38353 | 162.92715 | 3829 ft | 273 kts | 237° |
| 2026-04-22 22:08 | 5.37717 | 162.90911 | 4491 ft | 279 kts | 272° |
| 2026-04-22 22:08 | 5.38129 | 162.89024 | 5412 ft | 279 kts | 292° |
| 2026-04-22 22:08 | 5.38847 | 162.87198 | 6283 ft | 283 kts | 294° |
| 2026-04-22 22:08 | 5.39607 | 162.85354 | 7055 ft | 288 kts | 294° |
| 2026-04-22 22:09 | 5.40362 | 162.83482 | 7879 ft | 291 kts | 293° |
| 2026-04-22 22:09 | 5.41104 | 162.81578 | 8704 ft | 295 kts | 292° |
| 2026-04-22 22:09 | 5.41834 | 162.79640 | 9558 ft | 298 kts | 291° |
| 2026-04-22 22:09 | 5.42556 | 162.77675 | 10300 ft | 304 kts | 291° |
| 2026-04-22 22:10 | 5.43304 | 162.75604 | 10536 ft | 328 kts | 290° |
| 2026-04-22 22:10 | 5.44102 | 162.73368 | 10732 ft | 351 kts | 290° |
| 2026-04-22 22:10 | 5.44930 | 162.71016 | 11215 ft | 362 kts | 290° |
| 2026-04-22 22:10 | 5.45765 | 162.68623 | 11884 ft | 365 kts | 290° |
| 2026-04-22 22:11 | 5.46605 | 162.66203 | 12556 ft | 369 kts | 289° |
| 2026-04-22 22:11 | 5.47449 | 162.63762 | 13281 ft | 372 kts | 289° |
| 2026-04-22 22:11 | 5.48298 | 162.61301 | 13936 ft | 375 kts | 289° |
| 2026-04-22 22:11 | 5.49153 | 162.58822 | 14547 ft | 378 kts | 289° |
| 2026-04-22 22:12 | 5.50018 | 162.56310 | 15113 ft | 382 kts | 289° |
| 2026-04-22 22:12 | 5.50888 | 162.53783 | 15716 ft | 385 kts | 289° |
| 2026-04-22 22:12 | 5.51767 | 162.51231 | 16276 ft | 389 kts | 289° |
| 2026-04-22 22:12 | 5.52646 | 162.48681 | 16832 ft | 393 kts | 289° |
| 2026-04-22 22:13 | 5.53554 | 162.46042 | 17428 ft | 396 kts | 289° |
| 2026-04-22 22:13 | 5.54456 | 162.43419 | 17995 ft | 399 kts | 289° |
| 2026-04-22 22:13 | 5.55368 | 162.40771 | 18483 ft | 403 kts | 289° |
| 2026-04-22 22:13 | 5.56287 | 162.38102 | 18952 ft | 406 kts | 289° |
| 2026-04-22 22:14 | 5.57213 | 162.35412 | 19440 ft | 409 kts | 289° |
| 2026-04-22 22:14 | 5.58145 | 162.32706 | 19918 ft | 412 kts | 289° |
| 2026-04-22 22:14 | 5.59072 | 162.30013 | 20379 ft | 415 kts | 289° |
| 2026-04-22 22:14 | 5.60029 | 162.27231 | 20836 ft | 418 kts | 289° |
| 2026-04-22 22:15 | 5.60979 | 162.24467 | 21299 ft | 420 kts | 289° |
| 2026-04-22 22:15 | 5.61934 | 162.21688 | 21766 ft | 422 kts | 289° |
| 2026-04-22 22:15 | 5.62896 | 162.18891 | 22184 ft | 426 kts | 289° |
| 2026-04-22 22:15 | 5.63865 | 162.16075 | 22627 ft | 428 kts | 289° |
| 2026-04-22 22:16 | 5.64840 | 162.13242 | 23042 ft | 431 kts | 289° |
| 2026-04-22 22:16 | 5.65822 | 162.10382 | 23431 ft | 434 kts | 289° |
| 2026-04-22 22:16 | 5.66796 | 162.07546 | 23767 ft | 437 kts | 289° |
| 2026-04-22 22:16 | 5.67789 | 162.04654 | 24096 ft | 439 kts | 289° |
| 2026-04-22 22:17 | 5.68800 | 162.01710 | 24452 ft | 441 kts | 289° |
| 2026-04-22 22:17 | 5.69778 | 161.98861 | 24776 ft | 443 kts | 289° |
| 2026-04-22 22:17 | 5.70784 | 161.95929 | 25094 ft | 446 kts | 289° |
| 2026-04-22 22:17 | 5.71784 | 161.93015 | 25417 ft | 448 kts | 289° |
| 2026-04-22 22:18 | 5.72800 | 161.90053 | 25749 ft | 450 kts | 289° |
| 2026-04-22 22:18 | 5.73819 | 161.87085 | 26148 ft | 449 kts | 289° |
| 2026-04-22 22:18 | 5.74834 | 161.84126 | 26632 ft | 447 kts | 289° |
| 2026-04-22 22:18 | 5.75859 | 161.81136 | 27113 ft | 446 kts | 289° |
| 2026-04-22 22:19 | 5.76854 | 161.78237 | 27570 ft | 445 kts | 289° |
| 2026-04-22 22:19 | 5.77861 | 161.75295 | 27918 ft | 447 kts | 289° |
| 2026-04-22 22:19 | 5.78879 | 161.72322 | 27924 ft | 454 kts | 288° |
| 2026-04-22 22:19 | 5.79915 | 161.69301 | 27949 ft | 461 kts | 288° |
| 2026-04-22 22:20 | 5.80964 | 161.66242 | 27953 ft | 466 kts | 288° |
| 2026-04-22 22:20 | 5.82027 | 161.63140 | 27949 ft | 472 kts | 288° |
| 2026-04-22 22:20 | 5.83101 | 161.60008 | 27947 ft | 476 kts | 288° |
| 2026-04-22 22:20 | 5.84183 | 161.56846 | 27946 ft | 481 kts | 288° |
| 2026-04-22 22:21 | 5.85275 | 161.53658 | 27940 ft | 485 kts | 288° |
| 2026-04-22 22:21 | 5.86374 | 161.50448 | 27940 ft | 487 kts | 288° |
| 2026-04-22 22:21 | 5.87475 | 161.47232 | 27937 ft | 487 kts | 288° |
| 2026-04-22 22:21 | 5.88576 | 161.44012 | 27937 ft | 487 kts | 288° |
| 2026-04-22 22:22 | 5.89677 | 161.40794 | 27934 ft | 488 kts | 288° |
| 2026-04-22 22:22 | 5.90778 | 161.37575 | 27937 ft | 488 kts | 288° |
| 2026-04-22 22:22 | 5.91880 | 161.34350 | 27940 ft | 487 kts | 288° |
| 2026-04-22 22:22 | 5.92981 | 161.31129 | 27934 ft | 488 kts | 288° |
| 2026-04-22 22:23 | 5.94082 | 161.27908 | 27937 ft | 487 kts | 288° |
| 2026-04-22 22:23 | 5.95179 | 161.24692 | 27940 ft | 487 kts | 288° |
| 2026-04-22 22:23 | 5.96278 | 161.21478 | 27940 ft | 486 kts | 288° |
| 2026-04-22 22:23 | 5.97375 | 161.18268 | 27938 ft | 486 kts | 288° |
| 2026-04-22 22:24 | 5.98472 | 161.15060 | 27937 ft | 486 kts | 289° |
| 2026-04-22 22:24 | 5.99571 | 161.11854 | 27938 ft | 485 kts | 288° |
| 2026-04-22 22:24 | 6.00666 | 161.08651 | 27939 ft | 485 kts | 288° |
| 2026-04-22 22:24 | 6.01758 | 161.05452 | 27935 ft | 485 kts | 288° |
| 2026-04-22 22:25 | 6.02850 | 161.02249 | 27938 ft | 485 kts | 288° |
| 2026-04-22 22:25 | 6.03914 | 160.99128 | 27939 ft | 484 kts | 288° |
| 2026-04-22 22:25 | 6.05004 | 160.95929 | 27939 ft | 484 kts | 288° |
| 2026-04-22 22:25 | 6.06093 | 160.92732 | 27941 ft | 484 kts | 288° |
| 2026-04-22 22:26 | 6.07183 | 160.89535 | 27939 ft | 484 kts | 288° |
| 2026-04-22 22:26 | 6.08275 | 160.86332 | 27941 ft | 484 kts | 288° |
| 2026-04-22 22:26 | 6.09364 | 160.83137 | 27942 ft | 484 kts | 288° |
| 2026-04-22 22:26 | 6.10453 | 160.79940 | 27939 ft | 484 kts | 288° |
| 2026-04-22 22:27 | 6.11542 | 160.76744 | 27939 ft | 483 kts | 288° |
| 2026-04-22 22:27 | 6.12630 | 160.73550 | 27941 ft | 483 kts | 288° |
| 2026-04-22 22:27 | 6.13717 | 160.70359 | 27936 ft | 483 kts | 288° |
| 2026-04-22 22:27 | 6.14805 | 160.67164 | 27938 ft | 482 kts | 288° |
| 2026-04-22 22:28 | 6.15890 | 160.63975 | 27938 ft | 482 kts | 288° |
| 2026-04-22 22:28 | 6.16975 | 160.60788 | 27941 ft | 482 kts | 288° |
| 2026-04-22 22:28 | 6.18060 | 160.57603 | 27939 ft | 482 kts | 288° |
| 2026-04-22 22:28 | 6.19144 | 160.54419 | 27937 ft | 482 kts | 288° |
| 2026-04-22 22:29 | 6.20226 | 160.51235 | 27938 ft | 482 kts | 288° |
| 2026-04-22 22:29 | 6.21309 | 160.48049 | 27940 ft | 482 kts | 288° |
| 2026-04-22 22:29 | 6.22392 | 160.44864 | 27939 ft | 482 kts | 288° |
| 2026-04-22 22:29 | 6.23474 | 160.41681 | 27946 ft | 482 kts | 288° |
| 2026-04-22 22:30 | 6.24559 | 160.38489 | 27937 ft | 482 kts | 288° |
| 2026-04-22 22:30 | 6.25642 | 160.35303 | 27947 ft | 482 kts | 288° |
| 2026-04-22 22:30 | 6.26725 | 160.32114 | 27934 ft | 482 kts | 288° |
| 2026-04-22 22:30 | 6.27808 | 160.28923 | 27934 ft | 483 kts | 288° |
| 2026-04-22 22:31 | 6.28893 | 160.25728 | 27943 ft | 483 kts | 288° |
| 2026-04-22 22:31 | 6.29975 | 160.22540 | 27931 ft | 483 kts | 288° |
| 2026-04-22 22:31 | 6.31058 | 160.19348 | 27938 ft | 483 kts | 288° |
| 2026-04-22 22:31 | 6.32142 | 160.16148 | 27941 ft | 483 kts | 288° |
| 2026-04-22 22:32 | 6.33223 | 160.12959 | 27934 ft | 483 kts | 288° |
| 2026-04-22 22:32 | 6.34306 | 160.09763 | 27935 ft | 482 kts | 288° |
| 2026-04-22 22:32 | 6.35388 | 160.06572 | 27933 ft | 482 kts | 288° |
| 2026-04-22 22:32 | 6.36470 | 160.03382 | 27937 ft | 482 kts | 288° |
| 2026-04-22 22:33 | 6.37550 | 160.00197 | 27938 ft | 482 kts | 288° |
| 2026-04-22 22:33 | 6.38604 | 159.97087 | 27937 ft | 481 kts | 288° |
| 2026-04-22 22:33 | 6.39682 | 159.93904 | 27937 ft | 481 kts | 288° |
| 2026-04-22 22:33 | 6.40760 | 159.90721 | 27935 ft | 481 kts | 288° |
| 2026-04-22 22:34 | 6.41837 | 159.87543 | 27937 ft | 480 kts | 288° |
| 2026-04-22 22:34 | 6.42901 | 159.84401 | 27932 ft | 481 kts | 288° |
| 2026-04-22 22:34 | 6.43977 | 159.81222 | 27937 ft | 480 kts | 288° |
| 2026-04-22 22:34 | 6.45053 | 159.78043 | 27935 ft | 481 kts | 288° |
| 2026-04-22 22:35 | 6.46129 | 159.74862 | 27935 ft | 481 kts | 288° |
| 2026-04-22 22:35 | 6.47206 | 159.71675 | 27932 ft | 481 kts | 288° |
| 2026-04-22 22:35 | 6.48283 | 159.68492 | 27933 ft | 481 kts | 288° |
| 2026-04-22 22:35 | 6.49353 | 159.65325 | 27920 ft | 473 kts | 288° |
| 2026-04-22 22:36 | 6.50390 | 159.62261 | 27917 ft | 454 kts | 288° |
| 2026-04-22 22:36 | 6.51389 | 159.59308 | 27918 ft | 438 kts | 288° |
| 2026-04-22 22:36 | 6.52352 | 159.56459 | 27818 ft | 426 kts | 288° |
| 2026-04-22 22:36 | 6.53305 | 159.53635 | 27294 ft | 426 kts | 288° |
| 2026-04-22 22:37 | 6.54256 | 159.50821 | 26862 ft | 422 kts | 288° |
| 2026-04-22 22:37 | 6.55194 | 159.48040 | 26430 ft | 418 kts | 288° |
| 2026-04-22 22:37 | 6.56125 | 159.45281 | 26003 ft | 415 kts | 288° |
| 2026-04-22 22:37 | 6.57049 | 159.42542 | 25570 ft | 412 kts | 288° |
| 2026-04-22 22:38 | 6.57967 | 159.39820 | 25120 ft | 410 kts | 288° |
| 2026-04-22 22:38 | 6.58882 | 159.37107 | 24684 ft | 408 kts | 288° |
| 2026-04-22 22:38 | 6.59791 | 159.34411 | 24231 ft | 406 kts | 288° |
| 2026-04-22 22:38 | 6.60696 | 159.31728 | 23800 ft | 404 kts | 288° |
| 2026-04-22 22:39 | 6.61597 | 159.29057 | 23334 ft | 403 kts | 288° |
| 2026-04-22 22:39 | 6.62494 | 159.26397 | 22851 ft | 400 kts | 288° |
| 2026-04-22 22:39 | 6.63384 | 159.23757 | 22399 ft | 397 kts | 288° |
| 2026-04-22 22:39 | 6.64266 | 159.21139 | 21964 ft | 394 kts | 288° |
| 2026-04-22 22:40 | 6.65143 | 159.18536 | 21538 ft | 391 kts | 288° |
| 2026-04-22 22:40 | 6.66012 | 159.15956 | 21114 ft | 388 kts | 288° |
| 2026-04-22 22:40 | 6.66874 | 159.13397 | 20710 ft | 385 kts | 288° |
| 2026-04-22 22:40 | 6.67732 | 159.10851 | 20286 ft | 383 kts | 288° |
| 2026-04-22 22:41 | 6.68584 | 159.08319 | 19860 ft | 381 kts | 289° |
| 2026-04-22 22:41 | 6.69432 | 159.05797 | 19451 ft | 380 kts | 289° |
| 2026-04-22 22:41 | 6.70278 | 159.03283 | 19022 ft | 379 kts | 289° |
| 2026-04-22 22:41 | 6.71120 | 159.00779 | 18599 ft | 378 kts | 289° |
| 2026-04-22 22:42 | 6.71941 | 158.98340 | 18193 ft | 376 kts | 289° |
| 2026-04-22 22:42 | 6.72778 | 158.95851 | 17730 ft | 375 kts | 289° |
| 2026-04-22 22:42 | 6.73610 | 158.93377 | 17303 ft | 372 kts | 289° |
| 2026-04-22 22:42 | 6.74437 | 158.90915 | 16885 ft | 369 kts | 288° |
| 2026-04-22 22:43 | 6.75257 | 158.88476 | 16473 ft | 367 kts | 288° |
| 2026-04-22 22:43 | 6.76071 | 158.86054 | 16079 ft | 364 kts | 288° |
| 2026-04-22 22:43 | 6.76880 | 158.83647 | 15684 ft | 362 kts | 288° |
| 2026-04-22 22:43 | 6.77685 | 158.81252 | 15286 ft | 360 kts | 288° |
| 2026-04-22 22:44 | 6.78485 | 158.78870 | 14877 ft | 359 kts | 288° |
| 2026-04-22 22:44 | 6.79282 | 158.76497 | 14483 ft | 358 kts | 288° |
| 2026-04-22 22:44 | 6.80076 | 158.74133 | 14080 ft | 356 kts | 288° |
| 2026-04-22 22:44 | 6.80869 | 158.71771 | 13673 ft | 356 kts | 288° |
| 2026-04-22 22:45 | 6.81658 | 158.69420 | 13236 ft | 354 kts | 288° |
| 2026-04-22 22:45 | 6.82423 | 158.67078 | 12810 ft | 352 kts | 286° |
| 2026-04-22 22:45 | 6.83055 | 158.64705 | 12367 ft | 351 kts | 283° |
| 2026-04-22 22:45 | 6.83621 | 158.62326 | 11967 ft | 348 kts | 283° |
| 2026-04-22 22:46 | 6.84169 | 158.59959 | 11577 ft | 346 kts | 283° |
| 2026-04-22 22:46 | 6.84716 | 158.57605 | 11199 ft | 346 kts | 283° |
| 2026-04-22 22:46 | 6.85267 | 158.55256 | 10797 ft | 348 kts | 283° |
| 2026-04-22 22:46 | 6.85830 | 158.52889 | 10466 ft | 348 kts | 284° |
| 2026-04-22 22:47 | 6.86390 | 158.50546 | 10289 ft | 340 kts | 284° |
| 2026-04-22 22:47 | 6.86935 | 158.48266 | 10130 ft | 329 kts | 284° |
| 2026-04-22 22:47 | 6.87463 | 158.46073 | 9989 ft | 315 kts | 284° |
| 2026-04-22 22:47 | 6.87966 | 158.43981 | 9901 ft | 299 kts | 284° |
| 2026-04-22 22:48 | 6.88455 | 158.41968 | 9504 ft | 297 kts | 284° |
| 2026-04-22 22:48 | 6.88942 | 158.39966 | 9193 ft | 292 kts | 284° |
| 2026-04-22 22:48 | 6.89420 | 158.37997 | 8877 ft | 286 kts | 284° |
| 2026-04-22 22:48 | 6.89886 | 158.36073 | 8591 ft | 281 kts | 284° |
| 2026-04-22 22:49 | 6.90196 | 158.34790 | 8399 ft | 278 kts | 284° |
| 2026-04-22 22:49 | 6.90653 | 158.32903 | 8139 ft | 282 kts | 284° |
| 2026-04-22 22:49 | 6.91118 | 158.30982 | 7854 ft | 282 kts | 284° |
| 2026-04-22 22:49 | 6.91582 | 158.29059 | 7572 ft | 283 kts | 284° |
| 2026-04-22 22:50 | 6.92046 | 158.27139 | 7295 ft | 282 kts | 284° |
| 2026-04-22 22:50 | 6.92504 | 158.25205 | 6998 ft | 286 kts | 283° |
| 2026-04-22 22:50 | 6.92957 | 158.23251 | 6688 ft | 287 kts | 284° |
| 2026-04-22 22:50 | 6.93440 | 158.21300 | 6409 ft | 286 kts | 284° |
| 2026-04-22 22:51 | 6.93918 | 158.19357 | 6127 ft | 286 kts | 284° |
| 2026-04-22 22:51 | 6.94392 | 158.17413 | 5808 ft | 285 kts | 284° |
| 2026-04-22 22:51 | 6.94858 | 158.15491 | 5495 ft | 280 kts | 284° |
| 2026-04-22 22:51 | 6.95314 | 158.13605 | 5214 ft | 274 kts | 284° |
| 2026-04-22 22:52 | 6.95760 | 158.11763 | 4955 ft | 268 kts | 285° |
| 2026-04-22 22:52 | 6.96192 | 158.09970 | 4744 ft | 261 kts | 285° |
| 2026-04-22 22:52 | 6.96627 | 158.08170 | 4509 ft | 268 kts | 285° |
| 2026-04-22 22:52 | 6.97064 | 158.06358 | 4388 ft | 264 kts | 285° |
| 2026-04-22 22:53 | 6.97488 | 158.04588 | 4251 ft | 256 kts | 285° |
| 2026-04-22 22:53 | 6.97900 | 158.02872 | 4159 ft | 246 kts | 285° |
| 2026-04-22 22:53 | 6.98292 | 158.01247 | 4064 ft | 232 kts | 285° |
| 2026-04-22 22:53 | 6.98629 | 157.99734 | 3999 ft | 224 kts | 281° |
| 2026-04-22 22:54 | 6.98648 | 157.98185 | 4005 ft | 222 kts | 267° |
| 2026-04-22 22:54 | 6.98570 | 157.96621 | 4019 ft | 226 kts | 269° |
| 2026-04-22 22:54 | 6.98513 | 157.95025 | 4014 ft | 229 kts | 269° |
| 2026-04-22 22:54 | 6.98453 | 157.93434 | 3982 ft | 226 kts | 269° |
| 2026-04-22 22:55 | 6.98240 | 157.91895 | 3994 ft | 222 kts | 252° |
| 2026-04-22 22:55 | 6.97954 | 157.90362 | 3972 ft | 227 kts | 282° |
| 2026-04-22 22:55 | 7.00123 | 157.88663 | 3988 ft | 211 kts | 10° |
| 2026-04-22 22:56 | 7.01440 | 157.89235 | 4020 ft | 207 kts | 30° |
| 2026-04-22 22:56 | 7.02658 | 157.90007 | 3994 ft | 208 kts | 46° |
| 2026-04-22 22:56 | 7.03388 | 157.91246 | 4001 ft | 208 kts | 74° |
| 2026-04-22 22:56 | 7.03427 | 157.92689 | 3999 ft | 210 kts | 102° |
| 2026-04-22 22:57 | 7.02811 | 157.93985 | 3981 ft | 202 kts | 122° |
| 2026-04-22 22:57 | 7.02040 | 157.95119 | 3970 ft | 192 kts | 122° |
| 2026-04-22 22:57 | 7.01268 | 157.96222 | 4009 ft | 194 kts | 121° |
| 2026-04-22 22:57 | 7.00509 | 157.97364 | 3965 ft | 197 kts | 121° |
| 2026-04-22 22:58 | 6.99749 | 157.98497 | 3803 ft | 191 kts | 121° |
| 2026-04-22 22:58 | 6.99016 | 157.99582 | 3654 ft | 185 kts | 121° |
| 2026-04-22 22:58 | 6.98514 | 158.00752 | 3445 ft | 184 kts | 91° |
| 2026-04-22 22:58 | 6.98535 | 158.02030 | 3299 ft | 184 kts | 88° |
| 2026-04-22 22:59 | 6.98538 | 158.03339 | 3121 ft | 191 kts | 88° |
| 2026-04-22 22:59 | 6.98540 | 158.04669 | 2873 ft | 188 kts | 88° |
| 2026-04-22 22:59 | 6.98543 | 158.05965 | 2672 ft | 183 kts | 88° |
| 2026-04-22 22:59 | 6.98547 | 158.07236 | 2459 ft | 180 kts | 88° |
| 2026-04-22 23:00 | 6.98552 | 158.08497 | 2252 ft | 181 kts | 89° |
| 2026-04-22 23:00 | 6.98556 | 158.09774 | 2039 ft | 183 kts | 89° |
| 2026-04-22 23:00 | 6.98557 | 158.11055 | 1782 ft | 183 kts | 89° |
| 2026-04-22 23:00 | 6.98551 | 158.12321 | 1524 ft | 178 kts | 90° |
| 2026-04-22 23:01 | 6.98548 | 158.13526 | 1317 ft | 163 kts | 87° |
| 2026-04-22 23:01 | 6.98554 | 158.14590 | 1157 ft | 141 kts | 89° |
| 2026-04-22 23:01 | 6.98550 | 158.15586 | 925 ft | 139 kts | 88° |
| 2026-04-22 23:01 | 6.98523 | 158.16555 | 759 ft | 139 kts | 92° |
| 2026-04-22 23:02 | 6.98514 | 158.17532 | 552 ft | 138 kts | 89° |
| 2026-04-22 23:02 | 6.98520 | 158.18507 | 398 ft | 143 kts | 91° |
| 2026-04-22 23:02 | 6.98520 | 158.19505 | 162 ft | 141 kts | 92° |
| 2026-04-22 23:02 | 6.98514 | 158.20468 | 25 ft | 130 kts | 92° |
| 2026-04-22 23:03 | 6.98509 | 158.21265 | 16 ft | 90 kts | 90° |
| 2026-04-22 23:03 | 6.98507 | 158.21564 | 17 ft | 33 kts | 90° |
| 2026-04-22 23:03 | 6.98506 | 158.21727 | 16 ft | 20 kts | 91° |
| 2026-04-22 23:03 | 6.98471 | 158.21820 | 16 ft | 12 kts | 116° |
| 2026-04-22 23:04 | 6.98500 | 158.21861 | 17 ft | 8 kts | 341° |
| 2026-04-22 23:04 | 6.98512 | 158.21812 | 16 ft | 8 kts | 267° |
| 2026-04-22 23:04 | 6.98510 | 158.21737 | 16 ft | 14 kts | 269° |
| 2026-04-22 23:04 | 6.98509 | 158.21611 | 17 ft | 22 kts | 270° |
| 2026-04-22 23:05 | 6.98509 | 158.21432 | 17 ft | 29 kts | 270° |
| 2026-04-22 23:05 | 6.98509 | 158.21211 | 16 ft | 32 kts | 270° |
| 2026-04-22 23:05 | 6.98510 | 158.20991 | 17 ft | 31 kts | 271° |
| 2026-04-22 23:05 | 6.98510 | 158.20781 | 16 ft | 29 kts | 270° |
| 2026-04-22 23:06 | 6.98510 | 158.20582 | 17 ft | 27 kts | 270° |
| 2026-04-22 23:06 | 6.98512 | 158.20433 | 16 ft | 12 kts | 270° |
| 2026-04-22 23:06 | 6.98481 | 158.20364 | 18 ft | 11 kts | 207° |
| 2026-04-22 23:07 | 6.98327 | 158.20357 | 17 ft | 11 kts | 180° |
| 2026-04-22 23:07 | 6.98277 | 158.20348 | 18 ft | 7 kts | 211° |
| 2026-04-22 23:07 | 6.98250 | 158.20333 | 17 ft | 2 kts | 203° |
| 2026-04-22 23:07 | 6.98234 | 158.20330 | 17 ft | 2 kts | 184° |
| 2026-04-22 23:08 | 6.98219 | 158.20330 | 16 ft | 2 kts | 179° |
| 2026-04-22 23:08 | 6.98203 | 158.20331 | 18 ft | 2 kts | 176° |
| 2026-04-22 23:08 | 6.98202 | 158.20331 | 16 ft | 0 kts | 176° |